Time;durP1;ratioP1;P1;durP2;ratioP2;P2;SDS_P1;SDS_P2;PMS_P1;PMS_P2;Temp;Humidity;BMP_temperature;BMP_pressure;BME280_temperature;BME280_humidity;BME280_pressure;Samples;Min_cycle;Max_cycle;Signal;HPM_P1;HPM_P2
2024/01/22 00:01:45;;;;;;;38.30;29.67;;;6.50;99.90;;;;;;4896229;29;20040;-84
2024/01/22 00:04:12;;;;;;;96.25;47.13;;;6.50;99.90;;;;;;4896095;29;20029;-84
2024/01/22 00:06:39;;;;;;;34.67;28.45;;;6.50;99.90;;;;;;4896238;29;20129;-84
2024/01/22 00:09:06;;;;;;;85.57;43.40;;;6.50;99.90;;;;;;4896186;29;20439;-84
2024/01/22 00:11:33;;;;;;;26.88;24.52;;;6.50;99.90;;;;;;4895870;29;20037;-81
2024/01/22 00:14:00;;;;;;;25.50;23.27;;;6.50;99.90;;;;;;4864551;29;20036;-83
2024/01/22 00:16:26;;;;;;;24.20;22.38;;;6.50;99.90;;;;;;4895131;29;20032;-80
2024/01/22 00:18:53;;;;;;;23.42;21.92;;;6.50;99.90;;;;;;4879354;29;20037;-80
2024/01/22 00:21:19;;;;;;;24.27;22.48;;;6.60;99.90;;;;;;4880054;29;20033;-80
2024/01/22 00:23:46;;;;;;;23.77;22.02;;;6.60;99.90;;;;;;4863818;29;20033;-80
2024/01/22 00:26:14;;;;;;;23.83;21.95;;;6.60;99.90;;;;;;4863948;29;20032;-80
2024/01/22 00:28:41;;;;;;;23.65;21.92;;;6.60;99.90;;;;;;4880538;29;20490;-80
2024/01/22 00:31:08;;;;;;;22.83;21.33;;;6.60;99.90;;;;;;4880312;29;20029;-80
2024/01/22 00:33:35;;;;;;;23.13;21.25;;;6.70;99.90;;;;;;4894916;29;20509;-80
2024/01/22 00:36:05;;;;;;;24.17;22.20;;;6.70;99.90;;;;;;4880346;29;20055;-81
2024/01/22 00:38:31;;;;;;;23.30;21.30;;;6.60;99.90;;;;;;4879048;29;20055;-80
2024/01/22 00:40:57;;;;;;;22.77;21.15;;;6.60;99.90;;;;;;4894571;29;20021;-80
2024/01/22 00:43:24;;;;;;;21.92;20.33;;;6.60;99.90;;;;;;4879050;29;20044;-81
2024/01/22 00:45:50;;;;;;;22.20;20.60;;;6.50;99.90;;;;;;4879126;29;20021;-80
2024/01/22 00:48:17;;;;;;;23.00;21.20;;;6.40;99.90;;;;;;4894462;29;20117;-80
2024/01/22 00:50:43;;;;;;;23.23;21.38;;;6.20;99.90;;;;;;4894287;29;20053;-80
2024/01/22 00:53:09;;;;;;;23.85;21.70;;;6.10;99.90;;;;;;4894285;29;20447;-80
2024/01/22 00:55:35;;;;;;;23.75;21.77;;;6.10;99.90;;;;;;4878829;29;20108;-81
2024/01/22 00:58:02;;;;;;;23.45;21.63;;;6.00;99.90;;;;;;4878883;29;20044;-81
2024/01/22 01:00:28;;;;;;;22.67;21.08;;;6.00;99.90;;;;;;4894365;29;20391;-81
2024/01/22 01:02:54;;;;;;;23.98;21.80;;;5.90;99.90;;;;;;4878591;29;20039;-81
2024/01/22 01:05:21;;;;;;;23.27;21.45;;;5.80;99.90;;;;;;4894125;29;20089;-81
2024/01/22 01:07:47;;;;;;;22.70;21.13;;;5.80;99.90;;;;;;4894081;29;20028;-81
2024/01/22 01:10:13;;;;;;;22.65;20.85;;;5.70;99.90;;;;;;4878657;29;20085;-81
2024/01/22 01:12:40;;;;;;;22.65;20.90;;;5.70;99.90;;;;;;4893951;29;20081;-81
2024/01/22 01:15:07;;;;;;;22.98;21.05;;;5.70;99.90;;;;;;4878532;29;20068;-81
2024/01/22 01:17:33;;;;;;;23.05;21.17;;;5.70;99.90;;;;;;4878469;29;20033;-80
2024/01/22 01:20:06;;;;;;;23.05;21.02;;;5.60;99.90;;;;;;4878334;29;20045;-81
2024/01/22 01:22:32;;;;;;;22.30;20.40;;;5.60;99.90;;;;;;4878332;29;20025;-82
2024/01/22 01:24:59;;;;;;;23.77;21.65;;;5.60;99.90;;;;;;4893841;29;20025;-81
2024/01/22 01:27:25;;;;;;;22.33;20.40;;;5.60;99.90;;;;;;4879614;29;20368;-81
2024/01/22 01:29:52;;;;;;;22.48;20.52;;;5.50;99.90;;;;;;4893822;29;20057;-81
2024/01/22 01:32:19;;;;;;;22.63;20.85;;;5.50;99.90;;;;;;4893365;29;20069;-81
2024/01/22 01:34:45;;;;;;;23.17;21.08;;;5.60;99.90;;;;;;4893804;29;20064;-81
2024/01/22 01:37:12;;;;;;;21.83;20.17;;;5.70;99.90;;;;;;4879503;29;20025;-81
2024/01/22 01:39:38;;;;;;;21.70;20.10;;;5.80;99.90;;;;;;4879452;29;20064;-81
2024/01/22 01:42:04;;;;;;;22.90;20.88;;;5.90;99.90;;;;;;4894068;29;20032;-81
2024/01/22 01:44:40;;;;;;;22.67;20.98;;;6.00;99.90;;;;;;4878196;29;20025;-81
2024/01/22 01:47:06;;;;;;;23.75;21.40;;;6.10;99.90;;;;;;4893702;29;20025;-81
2024/01/22 01:49:33;;;;;;;22.65;21.15;;;6.20;99.90;;;;;;4862746;29;20037;-81
2024/01/22 01:52:00;;;;;;;23.20;21.70;;;6.20;99.90;;;;;;4893338;29;20045;-81
2024/01/22 01:54:28;;;;;;;24.15;22.35;;;6.30;99.90;;;;;;4893754;29;20045;-81
2024/01/22 01:56:55;;;;;;;24.52;22.80;;;6.30;99.90;;;;;;4893645;29;20443;-81
2024/01/22 01:59:25;;;;;;;24.40;22.88;;;6.40;99.90;;;;;;4893688;29;20037;-81
2024/01/22 02:01:52;;;;;;;24.20;22.60;;;6.30;99.90;;;;;;4893338;29;20516;-81
2024/01/22 02:04:18;;;;;;;24.58;22.98;;;6.40;99.90;;;;;;4893588;29;20064;-81
2024/01/22 02:06:45;;;;;;;25.05;23.55;;;6.40;99.90;;;;;;4878162;29;20487;-81
2024/01/22 02:09:11;;;;;;;24.85;23.45;;;6.40;99.90;;;;;;4893624;29;20485;-81
2024/01/22 02:11:37;;;;;;;24.77;23.38;;;6.40;99.90;;;;;;4877964;29;20036;-82
2024/01/22 02:14:03;;;;;;;23.20;21.90;;;6.50;99.90;;;;;;4878027;29;20124;-81
2024/01/22 02:16:30;;;;;;;23.48;21.88;;;6.30;99.90;;;;;;4878063;29;20030;-81
2024/01/22 02:18:56;;;;;;;23.02;21.38;;;6.10;99.90;;;;;;4879110;29;20124;-81
2024/01/22 02:21:23;;;;;;;22.58;21.10;;;6.00;99.90;;;;;;4893472;29;20069;-81
2024/01/22 02:23:49;;;;;;;22.58;21.15;;;5.80;99.90;;;;;;4879161;29;20037;-81
2024/01/22 02:26:15;;;;;;;22.30;20.90;;;5.60;99.90;;;;;;4876466;29;20073;-82
2024/01/22 02:28:45;;;;;;;22.02;20.63;;;5.50;99.90;;;;;;4877837;29;20040;-81
2024/01/22 02:31:11;;;;;;;22.40;20.83;;;5.40;99.90;;;;;;4877921;29;20029;-81
2024/01/22 02:33:37;;;;;;;21.80;20.40;;;5.30;99.90;;;;;;4879133;29;20050;-81
2024/01/22 02:36:06;;;;;;;22.30;20.70;;;5.20;99.90;;;;;;4877794;29;20036;-81
2024/01/22 02:38:32;;;;;;;22.95;21.17;;;5.10;99.90;;;;;;4877869;29;20033;-81
2024/01/22 02:40:58;;;;;;;22.25;20.67;;;5.10;99.90;;;;;;4877798;29;20120;-81
2024/01/22 02:43:24;;;;;;;22.77;21.15;;;5.20;99.90;;;;;;4893872;29;20117;-81
2024/01/22 02:45:51;;;;;;;23.02;21.08;;;5.30;99.90;;;;;;4896774;29;20451;-81
2024/01/22 02:48:17;;;;;;;23.35;21.60;;;5.40;99.90;;;;;;4882404;29;20113;-81
2024/01/22 02:50:43;;;;;;;24.50;22.90;;;5.50;99.90;;;;;;4880946;29;20448;-81
2024/01/22 02:53:10;;;;;;;23.33;21.92;;;5.60;99.90;;;;;;4880871;29;20041;-81
2024/01/22 02:55:36;;;;;;;24.17;22.73;;;5.70;99.90;;;;;;4865914;29;20033;-81
2024/01/22 02:58:02;;;;;;;23.45;22.10;;;5.70;99.90;;;;;;4865616;29;20115;-81
2024/01/22 03:00:29;;;;;;;24.95;23.05;;;5.80;99.90;;;;;;4865574;29;20036;-80
2024/01/22 03:02:55;;;;;;;23.50;21.90;;;5.80;99.90;;;;;;4880895;29;20026;-80
2024/01/22 03:05:23;;;;;;;23.95;22.23;;;5.70;99.90;;;;;;4882055;29;20108;-81
2024/01/22 03:07:49;;;;;;;23.67;22.08;;;5.60;99.90;;;;;;4880939;29;20025;-81
2024/01/22 03:10:15;;;;;;;23.67;22.13;;;5.60;99.90;;;;;;4880796;29;20036;-81
2024/01/22 03:12:42;;;;;;;23.48;22.08;;;5.50;99.90;;;;;;4881839;29;20108;-81
2024/01/22 03:15:12;;;;;;;24.10;22.55;;;5.40;99.90;;;;;;4896328;29;20120;-81
2024/01/22 03:17:38;;;;;;;24.30;22.08;;;5.30;99.90;;;;;;4896247;29;20076;-82
2024/01/22 03:20:05;;;;;;;22.83;21.33;;;5.20;99.90;;;;;;4896119;29;20044;-81
2024/01/22 03:22:31;;;;;;;22.65;21.08;;;5.00;99.90;;;;;;4880163;29;20040;-81
2024/01/22 03:24:58;;;;;;;23.52;21.35;;;4.90;99.90;;;;;;4881712;29;20037;-82
2024/01/22 03:27:27;;;;;;;22.58;20.73;;;4.70;99.90;;;;;;4896120;29;20100;-82
2024/01/22 03:29:53;;;;;;;22.35;20.85;;;4.70;99.90;;;;;;4879110;29;20078;-81
2024/01/22 03:32:20;;;;;;;22.23;20.45;;;4.60;99.90;;;;;;4895662;29;20038;-81
2024/01/22 03:34:46;;;;;;;21.88;20.27;;;4.50;99.90;;;;;;4880394;29;20033;-81
2024/01/22 03:37:12;;;;;;;22.38;20.77;;;4.40;99.90;;;;;;4895006;29;20036;-81
2024/01/22 03:39:39;;;;;;;22.00;20.40;;;4.30;99.90;;;;;;4880204;29;20037;-81
2024/01/22 03:42:08;;;;;;;21.67;20.02;;;4.30;99.90;;;;;;4881320;29;20032;-81
2024/01/22 03:44:34;;;;;;;21.95;20.25;;;4.20;99.90;;;;;;4895986;29;20033;-81
2024/01/22 03:47:00;;;;;;;21.25;19.65;;;4.20;99.90;;;;;;4880144;29;20037;-79
2024/01/22 03:49:27;;;;;;;21.40;19.88;;;4.20;99.90;;;;;;4880228;29;20085;-81
2024/01/22 03:51:53;;;;;;;21.08;19.50;;;4.20;99.90;;;;;;4879719;29;20053;-82
2024/01/22 03:54:19;;;;;;;20.70;19.20;;;4.20;99.90;;;;;;4880940;29;20044;-81
2024/01/22 03:56:46;;;;;;;20.75;19.42;;;4.20;99.90;;;;;;4880009;29;20187;-81
2024/01/22 03:59:12;;;;;;;21.15;19.55;;;4.20;99.90;;;;;;4879971;29;20111;-81
2024/01/22 04:01:41;;;;;;;20.67;19.20;;;4.20;99.90;;;;;;4881165;29;20021;-81
2024/01/22 04:04:07;;;;;;;20.23;18.80;;;4.20;99.90;;;;;;4896381;29;20033;-85
2024/01/22 04:06:33;;;;;;;20.48;18.85;;;4.10;99.90;;;;;;4896190;29;20029;-85
2024/01/22 04:09:00;;;;;;;20.33;19.00;;;4.20;99.90;;;;;;4896283;29;20058;-85
2024/01/22 04:11:26;;;;;;;20.50;19.00;;;4.10;99.90;;;;;;4880336;29;20084;-84
2024/01/22 04:13:52;;;;;;;20.27;18.98;;;4.10;99.90;;;;;;4895814;29;20029;-82
2024/01/22 04:16:19;;;;;;;20.95;19.23;;;4.00;99.90;;;;;;4880338;29;20040;-83
2024/01/22 04:18:45;;;;;;;20.80;19.00;;;4.10;99.90;;;;;;4895686;29;20045;-83
2024/01/22 04:21:12;;;;;;;20.30;18.70;;;4.10;99.90;;;;;;4881322;29;20022;-84
2024/01/22 04:23:38;;;;;;;20.33;18.83;;;4.10;99.90;;;;;;4895970;29;20050;-84
2024/01/22 04:26:07;;;;;;;19.50;18.20;;;4.10;99.90;;;;;;4896008;29;20033;-84
2024/01/22 04:28:33;;;;;;;19.63;18.23;;;4.10;99.90;;;;;;4883039;29;20072;-84
2024/01/22 04:31:01;;;;;;;20.15;18.50;;;4.20;99.90;;;;;;4881441;29;20036;-83
2024/01/22 04:33:28;;;;;;;19.98;18.58;;;4.20;99.90;;;;;;4878956;29;20040;-84
2024/01/22 04:35:54;;;;;;;20.00;18.65;;;4.20;99.90;;;;;;4895854;29;20398;-83
2024/01/22 04:38:20;;;;;;;20.33;18.92;;;4.30;99.90;;;;;;4895620;29;20029;-85
2024/01/22 04:40:47;;;;;;;20.42;18.90;;;4.30;99.90;;;;;;4895659;29;20033;-85
2024/01/22 04:43:13;;;;;;;21.02;19.38;;;4.40;99.90;;;;;;4895768;29;20109;-85
2024/01/22 04:45:40;;;;;;;21.17;19.67;;;4.50;99.90;;;;;;4895873;29;20566;-84
2024/01/22 04:48:06;;;;;;;22.30;20.48;;;4.50;99.90;;;;;;4895356;29;20033;-85
2024/01/22 04:50:33;;;;;;;31.20;20.95;;;4.50;99.90;;;;;;4895286;29;20490;-84
2024/01/22 04:52:59;;;;;;;23.13;20.98;;;4.60;99.90;;;;;;4895591;29;20052;-88
2024/01/22 04:55:25;;;;;;;22.20;20.67;;;4.70;99.90;;;;;;4880056;29;20040;-88
2024/01/22 04:57:52;;;;;;;22.30;20.90;;;4.80;99.90;;;;;;4895183;29;20041;-84
2024/01/22 05:00:19;;;;;;;22.95;21.25;;;4.80;99.90;;;;;;4895176;29;20116;-88
2024/01/22 05:02:45;;;;;;;22.77;21.30;;;4.80;99.90;;;;;;4895152;29;20033;-82
2024/01/22 05:05:13;;;;;;;22.48;20.95;;;4.80;99.90;;;;;;4879161;29;20041;-82
2024/01/22 05:07:39;;;;;;;23.15;21.45;;;4.90;99.90;;;;;;4894586;29;20025;-84
2024/01/22 05:10:11;;;;;;;23.88;22.17;;;5.00;99.90;;;;;;4895335;29;20026;-84
2024/01/22 05:12:37;;;;;;;23.70;22.27;;;5.10;99.90;;;;;;4876370;29;20034;-84
2024/01/22 05:15:04;;;;;;;27.48;24.95;;;5.20;99.90;;;;;;4861039;29;20093;-84
2024/01/22 05:17:32;;;;;;;25.17;23.17;;;5.20;99.90;;;;;;4861018;29;20033;-84
2024/01/22 05:19:59;;;;;;;26.15;24.00;;;5.30;99.90;;;;;;4876304;29;20053;-84
2024/01/22 05:22:25;;;;;;;25.90;24.10;;;5.40;99.90;;;;;;4876305;29;20033;-84
2024/01/22 05:24:53;;;;;;;24.55;23.15;;;5.40;99.90;;;;;;4860577;29;20037;-82
2024/01/22 05:27:19;;;;;;;25.08;23.20;;;5.40;99.90;;;;;;4874783;29;20025;-82
2024/01/22 05:29:46;;;;;;;25.20;23.33;;;5.50;99.90;;;;;;4863884;29;20037;-83
2024/01/22 05:32:12;;;;;;;24.70;22.95;;;5.60;99.90;;;;;;4860485;29;20025;-84
2024/01/22 05:34:38;;;;;;;25.13;23.45;;;5.60;99.90;;;;;;4845179;29;20491;-86
2024/01/22 05:37:05;;;;;;;25.20;23.45;;;5.70;99.90;;;;;;4845296;29;20022;-84
2024/01/22 05:39:36;;;;;;;25.77;24.02;;;5.80;99.90;;;;;;4845102;29;20052;-83
2024/01/22 05:42:03;;;;;;;25.48;23.95;;;5.80;99.90;;;;;;4844977;29;20041;-84
2024/01/22 05:44:30;;;;;;;24.20;22.67;;;5.90;99.90;;;;;;4844931;29;20033;-84
2024/01/22 05:46:56;;;;;;;25.88;23.95;;;6.00;99.90;;;;;;4844937;29;20040;-83
2024/01/22 05:49:23;;;;;;;25.90;23.98;;;6.00;99.90;;;;;;4844857;29;20025;-83
2024/01/22 05:51:49;;;;;;;25.35;23.77;;;5.90;99.90;;;;;;4826004;29;20050;-83
2024/01/22 05:54:16;;;;;;;25.25;23.55;;;5.80;99.90;;;;;;4826734;29;20113;-82
2024/01/22 05:56:42;;;;;;;25.17;23.67;;;5.70;99.90;;;;;;4841846;29;20034;-83
2024/01/22 05:59:09;;;;;;;25.42;23.55;;;5.60;99.90;;;;;;4826610;29;20492;-83
2024/01/22 06:01:36;;;;;;;24.83;23.33;;;5.40;99.90;;;;;;4825552;29;20030;-86
2024/01/22 06:04:04;;;;;;;24.63;22.75;;;5.40;99.90;;;;;;4826658;29;20029;-84
2024/01/22 06:06:31;;;;;;;25.92;23.65;;;5.30;99.90;;;;;;4826848;29;20037;-84
2024/01/22 06:08:58;;;;;;;26.73;24.63;;;5.30;99.90;;;;;;4811802;29;20484;-84
2024/01/22 06:11:26;;;;;;;26.08;24.17;;;5.20;99.90;;;;;;4827063;29;20034;-84
2024/01/22 06:13:55;;;;;;;27.80;25.77;;;5.20;99.90;;;;;;4841811;29;20504;-84
2024/01/22 06:16:21;;;;;;;28.88;26.65;;;5.10;99.90;;;;;;4826804;29;20026;-84
2024/01/22 06:18:48;;;;;;;31.63;29.02;;;5.10;99.90;;;;;;4829316;29;20484;-84
2024/01/22 06:21:15;;;;;;;30.10;27.63;;;5.10;99.90;;;;;;4845149;29;20055;-83
2024/01/22 06:23:42;;;;;;;28.88;26.77;;;5.10;99.90;;;;;;4861065;29;20030;-82
2024/01/22 06:26:09;;;;;;;30.00;27.58;;;5.10;99.90;;;;;;4864792;29;20073;-83
2024/01/22 06:28:36;;;;;;;29.13;27.02;;;5.10;99.90;;;;;;4848135;29;20034;-84
2024/01/22 06:31:03;;;;;;;28.52;26.63;;;5.20;99.90;;;;;;4837483;29;20029;-81
2024/01/22 06:33:29;;;;;;;29.52;27.33;;;5.20;99.90;;;;;;4847105;29;20033;-82
2024/01/22 06:35:55;;;;;;;31.45;28.92;;;5.20;99.90;;;;;;4847357;29;20037;-82
2024/01/22 06:38:22;;;;;;;31.90;29.65;;;5.30;99.90;;;;;;4846775;29;20034;-82
2024/01/22 06:40:49;;;;;;;30.35;28.27;;;5.40;99.90;;;;;;4862139;29;20057;-80
2024/01/22 06:43:15;;;;;;;29.65;27.70;;;5.40;99.90;;;;;;4857565;29;20068;-83
2024/01/22 06:45:43;;;;;;;30.48;28.48;;;5.70;99.90;;;;;;4877535;29;20037;-80
2024/01/22 06:48:11;;;;;;;31.58;29.38;;;6.00;99.90;;;;;;4862620;29;20021;-80
2024/01/22 06:50:39;;;;;;;31.67;29.50;;;6.20;99.90;;;;;;4868156;29;20569;-80
2024/01/22 06:53:05;;;;;;;31.38;29.42;;;6.50;99.90;;;;;;4881023;29;20065;-80
2024/01/22 06:55:32;;;;;;;31.98;29.80;;;6.70;99.90;;;;;;4882385;29;20029;-80
2024/01/22 06:57:58;;;;;;;33.78;31.17;;;7.00;99.90;;;;;;4881068;29;20518;-81
2024/01/22 07:00:26;;;;;;;35.10;31.63;;;7.30;99.90;;;;;;4882199;29;20135;-80
2024/01/22 07:02:53;;;;;;;35.25;32.65;;;7.50;99.90;;;;;;4839642;29;20036;-81
2024/01/22 07:05:20;;;;;;;36.20;33.40;;;7.90;99.90;;;;;;4862609;29;20046;-82
2024/01/22 07:07:47;;;;;;;36.95;34.20;;;8.30;99.90;;;;;;4832195;29;20380;-82
2024/01/22 07:10:13;;;;;;;38.58;35.05;;;8.70;99.90;;;;;;4847283;29;20029;-81
2024/01/22 07:12:41;;;;;;;38.47;35.40;;;8.90;99.90;;;;;;4855817;29;20375;-81
2024/01/22 07:15:12;;;;;;;38.83;35.38;;;9.10;99.90;;;;;;4865445;29;20029;-81
2024/01/22 07:17:44;;;;;;;38.78;35.92;;;9.20;99.90;;;;;;4881248;29;20032;-84
2024/01/22 07:20:14;;;;;;;39.28;36.25;;;9.60;99.90;;;;;;4881309;29;20093;-83
2024/01/22 07:22:41;;;;;;;38.42;35.47;;;9.60;99.90;;;;;;4881238;29;20033;-84
2024/01/22 07:25:10;;;;;;;38.45;35.45;;;9.70;99.90;;;;;;4886063;29;20025;-85
2024/01/22 07:27:42;;;;;;;41.40;37.95;;;10.10;99.90;;;;;;4896445;29;20052;-83
2024/01/22 07:30:11;;;;;;;40.15;37.00;;;10.10;99.90;;;;;;4895602;29;20540;-83
2024/01/22 07:32:40;;;;;;;38.60;35.30;;;10.30;99.90;;;;;;4880710;29;20041;-83
2024/01/22 07:35:11;;;;;;;36.88;34.15;;;10.70;99.90;;;;;;4880844;29;20026;-83
2024/01/22 07:37:41;;;;;;;35.30;32.92;;;10.90;99.90;;;;;;4865359;29;20040;-83
2024/01/22 07:40:11;;;;;;;35.83;33.30;;;10.80;99.90;;;;;;4895980;29;20060;-82
2024/01/22 07:42:39;;;;;;;35.50;33.00;;;10.60;99.90;;;;;;4895750;29;20029;-81
2024/01/22 07:45:07;;;;;;;35.60;32.85;;;10.30;99.90;;;;;;4881401;29;20065;-82
2024/01/22 07:47:34;;;;;;;36.03;33.40;;;10.20;99.90;;;;;;4895805;29;20029;-82
2024/01/22 07:50:05;;;;;;;35.97;32.80;;;10.30;99.90;;;;;;4896357;29;20376;-82
2024/01/22 07:52:33;;;;;;;35.05;32.45;;;10.30;99.90;;;;;;4880063;29;20127;-82
2024/01/22 07:55:01;;;;;;;35.78;33.17;;;10.50;99.90;;;;;;4879978;29;20037;-82
2024/01/22 07:57:28;;;;;;;37.30;34.53;;;10.60;99.90;;;;;;4895648;29;20025;-82
2024/01/22 07:59:55;;;;;;;37.67;35.00;;;10.70;99.90;;;;;;4895608;29;20045;-82
2024/01/22 08:02:22;;;;;;;36.97;34.10;;;10.60;99.90;;;;;;4883043;29;20111;-81
2024/01/22 08:04:50;;;;;;;36.55;33.97;;;10.60;99.90;;;;;;4898630;29;20040;-82
2024/01/22 08:07:20;;;;;;;36.10;33.80;;;10.50;99.90;;;;;;4883164;29;20055;-82
2024/01/22 08:09:47;;;;;;;36.58;34.10;;;10.50;99.90;;;;;;4899839;29;20029;-81
2024/01/22 08:12:13;;;;;;;35.85;33.58;;;10.70;99.90;;;;;;4882971;29;20406;-81
2024/01/22 08:14:40;;;;;;;36.00;33.58;;;10.80;99.90;;;;;;4882802;29;20038;-82
2024/01/22 08:17:07;;;;;;;36.22;33.75;;;11.00;99.90;;;;;;4882866;29;20036;-81
2024/01/22 08:19:34;;;;;;;35.88;33.67;;;11.20;99.90;;;;;;4882714;29;20040;-81
2024/01/22 08:22:02;;;;;;;36.03;33.65;;;11.30;99.90;;;;;;4895429;29;20475;-81
2024/01/22 08:24:30;;;;;;;36.22;33.50;;;11.40;99.90;;;;;;4895453;29;20040;-82
2024/01/22 08:26:56;;;;;;;34.55;32.45;;;11.50;99.90;;;;;;4895226;29;20435;-81
2024/01/22 08:29:23;;;;;;;34.85;32.42;;;11.50;99.90;;;;;;4895080;29;20124;-81
2024/01/22 08:31:49;;;;;;;35.53;33.38;;;11.40;99.90;;;;;;4880464;29;20101;-81
2024/01/22 08:34:16;;;;;;;35.47;33.47;;;11.40;99.90;;;;;;4898002;29;20032;-81
2024/01/22 08:36:42;;;;;;;36.03;33.88;;;11.50;99.90;;;;;;4882539;29;20031;-81
2024/01/22 08:39:09;;;;;;;37.55;34.90;;;11.50;99.90;;;;;;4875225;29;20062;-81
2024/01/22 08:41:38;;;;;;;37.25;34.85;;;11.30;99.90;;;;;;4844671;29;20129;-81
2024/01/22 08:44:05;;;;;;;37.42;34.88;;;11.40;99.90;;;;;;4882155;29;20033;-81
2024/01/22 08:46:32;;;;;;;37.08;34.78;;;11.30;99.90;;;;;;4882527;29;20056;-82
2024/01/22 08:49:02;;;;;;;38.05;35.42;;;11.40;99.90;;;;;;4899338;29;20116;-80
2024/01/22 08:51:29;;;;;;;36.80;34.33;;;11.50;99.90;;;;;;4894311;29;20081;-80
2024/01/22 08:53:55;;;;;;;35.95;33.53;;;11.40;99.90;;;;;;4879011;29;20037;-83
2024/01/22 08:56:22;;;;;;;35.83;33.72;;;11.50;99.90;;;;;;4894427;29;20108;-81
2024/01/22 08:58:49;;;;;;;36.40;33.97;;;11.60;99.90;;;;;;4894284;29;20201;-80
2024/01/22 09:01:15;;;;;;;35.72;33.47;;;11.60;99.90;;;;;;4894390;29;20039;-81
2024/01/22 09:03:44;;;;;;;37.45;34.95;;;11.70;99.90;;;;;;4878642;29;20089;-80
2024/01/22 09:06:10;;;;;;;37.13;35.03;;;11.70;99.90;;;;;;4894381;29;20169;-80
2024/01/22 09:08:42;;;;;;;36.42;34.13;;;11.70;99.90;;;;;;4894321;29;20043;-81
2024/01/22 09:11:09;;;;;;;37.10;34.80;;;11.50;99.90;;;;;;4894167;29;20033;-81
2024/01/22 09:13:38;;;;;;;36.75;34.35;;;11.60;99.90;;;;;;4878681;29;20029;-81
2024/01/22 09:16:05;;;;;;;36.38;34.30;;;11.70;99.90;;;;;;4893982;29;20106;-80
2024/01/22 09:18:35;;;;;;;36.38;34.15;;;11.60;99.90;;;;;;4893574;29;20075;-81
2024/01/22 09:21:03;;;;;;;36.67;34.38;;;11.60;99.90;;;;;;4894110;29;20070;-81
2024/01/22 09:23:30;;;;;;;37.25;34.78;;;11.70;99.90;;;;;;4875254;29;20148;-81
2024/01/22 09:25:56;;;;;;;36.22;34.03;;;11.80;99.90;;;;;;4861131;29;20060;-80
2024/01/22 09:28:25;;;;;;;37.40;35.05;;;11.90;99.90;;;;;;4844566;29;20033;-81
2024/01/22 09:30:52;;;;;;;36.67;34.58;;;11.70;99.90;;;;;;4860205;29;20112;-82
2024/01/22 09:33:18;;;;;;;36.17;33.92;;;11.70;99.90;;;;;;4871434;29;20021;-81
2024/01/22 09:35:45;;;;;;;36.47;34.22;;;11.80;99.90;;;;;;4878296;29;20661;-81
2024/01/22 09:38:11;;;;;;;36.30;34.13;;;11.70;99.90;;;;;;4893782;29;20032;-81
2024/01/22 09:40:38;;;;;;;36.53;34.42;;;11.80;99.90;;;;;;4878506;29;20060;-81
2024/01/22 09:43:07;;;;;;;36.42;34.15;;;11.80;99.90;;;;;;4893704;29;20025;-81
2024/01/22 09:45:34;;;;;;;38.17;34.75;;;12.00;99.90;;;;;;4878238;29;20044;-81
2024/01/22 09:48:02;;;;;;;37.10;34.90;;;12.10;99.90;;;;;;4878078;29;20111;-81
2024/01/22 09:50:29;;;;;;;37.63;35.42;;;12.10;99.90;;;;;;4877941;29;20052;-81
2024/01/22 09:53:08;;;;;;;36.40;34.33;;;12.10;99.90;;;;;;4893077;29;20037;-81
2024/01/22 09:55:43;;;;;;;36.47;34.38;;;12.10;99.90;;;;;;4893538;29;20128;-80
2024/01/22 09:58:19;;;;;;;37.38;34.97;;;12.00;99.90;;;;;;4893578;29;20057;-80
2024/01/22 10:00:46;;;;;;;37.45;35.00;;;12.10;99.90;;;;;;4878115;29;20033;-81
2024/01/22 10:03:14;;;;;;;37.10;34.53;;;12.10;99.90;;;;;;4893699;29;20025;-81
2024/01/22 10:05:41;;;;;;;37.95;35.50;;;12.10;99.90;;;;;;4878141;29;20036;-81
2024/01/22 10:08:08;;;;;;;37.33;35.00;;;12.20;99.90;;;;;;4878177;29;20048;-80
2024/01/22 10:10:38;;;;;;;38.08;35.65;;;12.20;99.90;;;;;;4893434;29;20041;-82
2024/01/22 10:13:07;;;;;;;38.10;35.67;;;12.20;99.90;;;;;;4878011;29;20037;-81
2024/01/22 10:15:35;;;;;;;37.42;35.13;;;12.20;99.90;;;;;;4878165;29;20041;-82
2024/01/22 10:18:16;;;;;;;39.15;36.05;;;12.20;99.90;;;;;;4862664;29;20120;-82
2024/01/22 10:20:45;;;;;;;38.83;36.40;;;12.40;99.90;;;;;;4893777;29;20407;-83
2024/01/22 10:23:18;;;;;;;38.67;35.92;;;12.40;99.90;;;;;;4894078;29;20033;-82
2024/01/22 10:25:44;;;;;;;37.83;35.53;;;12.30;99.90;;;;;;4878220;29;20120;-81
2024/01/22 10:28:16;;;;;;;37.67;35.38;;;12.40;99.90;;;;;;4893657;29;20029;-81
2024/01/22 10:31:04;;;;;;;38.30;35.88;;;12.40;99.90;;;;;;4878616;29;20101;-83
2024/01/22 10:33:34;;;;;;;37.95;35.67;;;12.40;99.90;;;;;;4894379;29;20064;-87
2024/01/22 10:36:21;;;;;;;38.25;35.92;;;12.40;99.90;;;;;;4894763;29;20037;-85
2024/01/22 10:39:04;;;;;;;37.80;35.17;;;12.30;99.90;;;;;;4878495;29;20037;-82
2024/01/22 10:41:35;;;;;;;37.90;35.70;;;12.40;99.90;;;;;;4890424;29;20127;-84
2024/01/22 10:44:04;;;;;;;37.75;35.55;;;12.50;99.90;;;;;;4875372;29;20033;-82
2024/01/22 10:46:34;;;;;;;38.55;36.25;;;12.50;99.90;;;;;;4894024;29;20033;-84
2024/01/22 10:49:02;;;;;;;38.83;36.42;;;12.50;99.90;;;;;;4894292;29;20033;-85
2024/01/22 10:51:29;;;;;;;38.95;36.40;;;12.50;99.90;;;;;;4894120;29;20059;-84
2024/01/22 10:53:55;;;;;;;39.70;37.08;;;12.70;99.90;;;;;;4894080;29;20029;-86
2024/01/22 10:56:24;;;;;;;38.63;36.42;;;12.50;99.90;;;;;;4878557;29;20407;-85
2024/01/22 10:58:55;;;;;;;40.13;37.47;;;12.50;99.90;;;;;;4894230;29;20082;-84
2024/01/22 11:01:25;;;;;;;39.55;37.15;;;12.60;99.90;;;;;;4894385;29;20036;-84
2024/01/22 11:03:56;;;;;;;39.70;37.00;;;12.50;99.90;;;;;;4894253;29;20098;-85
2024/01/22 11:06:29;;;;;;;39.40;37.10;;;12.40;99.90;;;;;;4897038;29;20032;-85
2024/01/22 11:08:57;;;;;;;40.20;37.78;;;12.50;99.90;;;;;;4897325;29;20048;-84
2024/01/22 11:11:28;;;;;;;40.60;38.20;;;12.50;99.90;;;;;;4897486;29;20398;-85
2024/01/22 11:13:58;;;;;;;41.35;38.60;;;12.60;99.90;;;;;;4897340;29;20072;-84
2024/01/22 11:16:25;;;;;;;40.50;38.10;;;12.60;99.90;;;;;;4897476;29;20120;-85
2024/01/22 11:19:00;;;;;;;41.17;38.88;;;12.50;99.90;;;;;;4897181;29;20028;-85
2024/01/22 11:21:38;;;;;;;40.45;38.15;;;12.50;99.90;;;;;;4847850;29;20575;-85
2024/01/22 11:24:22;;;;;;;39.97;37.67;;;12.50;99.90;;;;;;4863036;29;20050;-85
2024/01/22 11:26:55;;;;;;;40.47;37.85;;;12.70;99.90;;;;;;4863030;29;20120;-85
2024/01/22 11:29:27;;;;;;;40.47;37.88;;;12.80;99.90;;;;;;4847721;29;20030;-86
2024/01/22 11:31:55;;;;;;;39.60;37.22;;;12.90;99.90;;;;;;4863054;29;20086;-85
2024/01/22 11:34:40;;;;;;;40.15;37.58;;;12.90;99.90;;;;;;4862724;29;20030;-85
2024/01/22 11:37:07;;;;;;;40.42;37.53;;;12.70;99.90;;;;;;4847506;29;20033;-86
2024/01/22 11:39:42;;;;;;;39.05;36.75;;;12.70;99.90;;;;;;4862729;29;20111;-85
2024/01/22 11:42:25;;;;;;;38.47;36.08;;;12.80;99.90;;;;;;4847439;29;20365;-85
2024/01/22 11:44:52;;;;;;;38.67;36.28;;;12.70;99.90;;;;;;4847543;29;20085;-86
2024/01/22 11:47:20;;;;;;;39.03;36.55;;;12.60;99.90;;;;;;4862664;29;20041;-85
2024/01/22 11:49:47;;;;;;;38.40;36.20;;;12.70;99.90;;;;;;4862833;29;20411;-86
2024/01/22 11:52:16;;;;;;;39.15;36.53;;;12.70;99.90;;;;;;4847593;29;20049;-85
2024/01/22 11:54:57;;;;;;;39.33;36.53;;;12.70;99.90;;;;;;4862721;29;20082;-86
2024/01/22 11:57:27;;;;;;;38.80;36.40;;;12.60;99.90;;;;;;4878510;29;20037;-84
2024/01/22 12:00:11;;;;;;;38.28;35.90;;;12.70;99.90;;;;;;4877683;29;20046;-85
2024/01/22 12:02:40;;;;;;;39.00;36.60;;;12.70;99.90;;;;;;4877872;29;20025;-84
2024/01/22 12:05:12;;;;;;;39.70;36.95;;;12.70;99.90;;;;;;4877813;29;20042;-84
2024/01/22 12:07:47;;;;;;;39.28;36.42;;;12.60;99.90;;;;;;4877659;29;20034;-86
2024/01/22 12:10:21;;;;;;;38.80;35.83;;;12.70;99.90;;;;;;4877857;29;20101;-86
2024/01/22 12:13:00;;;;;;;38.58;36.10;;;12.60;99.90;;;;;;4877796;29;20033;-85
2024/01/22 12:15:32;;;;;;;38.83;36.33;;;12.60;99.90;;;;;;4877330;29;20121;-86
2024/01/22 12:18:02;;;;;;;37.03;34.90;;;12.50;99.90;;;;;;4878097;29;20058;-85
2024/01/22 12:20:30;;;;;;;37.70;35.00;;;12.50;99.90;;;;;;4877059;29;20045;-84
2024/01/22 12:23:03;;;;;;;37.60;35.13;;;12.50;99.90;;;;;;4855380;29;20031;-82
2024/01/22 12:25:39;;;;;;;37.33;34.83;;;12.50;99.90;;;;;;4849284;29;20442;-83
2024/01/22 12:28:13;;;;;;;37.13;34.83;;;12.50;99.90;;;;;;4864767;29;20276;-83
2024/01/22 12:30:41;;;;;;;37.80;35.50;;;12.70;99.90;;;;;;4849264;29;20097;-83
2024/01/22 12:33:22;;;;;;;38.05;35.65;;;12.50;99.90;;;;;;4854449;29;20025;-83
2024/01/22 12:35:50;;;;;;;38.08;35.72;;;12.60;99.90;;;;;;4895405;29;20466;-83
2024/01/22 12:38:20;;;;;;;38.45;35.97;;;12.50;99.90;;;;;;4895269;29;20031;-83